createdAt,value
2023-02-06T00:02:03.308Z,100413.31
2023-02-06T00:04:29.832Z,100416.19
2023-02-06T00:06:56.385Z,100407.72
2023-02-06T00:09:22.857Z,100405.19
2023-02-06T00:11:49.360Z,100417.56
2023-02-06T00:14:15.829Z,100408.38
2023-02-06T00:16:42.298Z,100415.00
2023-02-06T00:19:08.791Z,100425.53
2023-02-06T00:21:35.286Z,100421.31
2023-02-06T00:24:02.801Z,100420.75
2023-02-06T00:26:31.393Z,100418.47
2023-02-06T00:28:58.165Z,100410.41
2023-02-06T00:31:24.857Z,100417.88
2023-02-06T00:33:51.486Z,100411.88
2023-02-06T00:36:18.025Z,100411.38
2023-02-06T00:38:44.575Z,100403.09
2023-02-06T00:41:11.290Z,100415.78
2023-02-06T00:43:37.808Z,100413.44
2023-02-06T00:46:04.475Z,100410.78
2023-02-06T00:48:31.056Z,100420.56
2023-02-06T00:50:57.584Z,100406.94
2023-02-06T00:53:24.089Z,100411.28
2023-02-06T00:55:50.618Z,100412.81
2023-02-06T00:58:17.115Z,100408.31
2023-02-06T01:00:44.261Z,100412.56
2023-02-06T01:03:11.215Z,100411.09
2023-02-06T01:05:37.984Z,100410.00
2023-02-06T01:08:04.959Z,100406.47
2023-02-06T01:10:31.973Z,100400.47
2023-02-06T01:12:58.486Z,100398.50
2023-02-06T01:15:24.979Z,100410.31
2023-02-06T01:17:51.496Z,100402.81
2023-02-06T01:20:18.143Z,100409.66
2023-02-06T01:22:44.667Z,100405.16
2023-02-06T01:25:11.219Z,100402.47
2023-02-06T01:27:38.267Z,100416.63
2023-02-06T01:30:06.932Z,100426.91
2023-02-06T01:32:37.736Z,100412.56
2023-02-06T01:35:06.738Z,100422.28
2023-02-06T01:37:33.336Z,100408.81
2023-02-06T01:39:59.913Z,100419.81
2023-02-06T01:42:26.429Z,100415.66
2023-02-06T01:45:17.564Z,100417.75
2023-02-06T01:47:44.071Z,100411.16
2023-02-06T01:50:10.651Z,100401.63
2023-02-06T01:52:37.135Z,100408.50
2023-02-06T01:55:05.039Z,100404.63
2023-02-06T01:57:33.652Z,100403.84
2023-02-06T02:00:05.926Z,100404.13
2023-02-06T02:02:32.810Z,100402.28
2023-02-06T02:05:01.644Z,100394.28
2023-02-06T02:07:33.189Z,100399.16
2023-02-06T02:09:59.732Z,100391.66
2023-02-06T02:12:26.453Z,100393.41
2023-02-06T02:14:54.254Z,100396.47
2023-02-06T02:17:49.783Z,100392.09
2023-02-06T02:20:38.602Z,100393.78
2023-02-06T02:23:29.471Z,100389.09
2023-02-06T02:26:18.279Z,100380.28
2023-02-06T02:28:58.969Z,100377.59
2023-02-06T02:31:49.601Z,100387.06
2023-02-06T02:34:51.622Z,100375.88
2023-02-06T02:37:50.237Z,100363.91
2023-02-06T02:40:20.822Z,100380.44
2023-02-06T02:43:12.097Z,100381.09
2023-02-06T02:45:48.351Z,100379.09
2023-02-06T02:48:20.661Z,100383.44
2023-02-06T02:50:47.816Z,100377.47
2023-02-06T02:53:14.901Z,100370.47
2023-02-06T02:55:41.709Z,100383.16
2023-02-06T02:58:15.496Z,100373.75
2023-02-06T03:00:49.103Z,100387.13
2023-02-06T03:03:22.150Z,100385.78
2023-02-06T03:06:17.953Z,100383.75
2023-02-06T03:09:03.073Z,100379.91
2023-02-06T03:11:30.715Z,100382.72
2023-02-06T03:14:06.052Z,100386.59
2023-02-06T03:16:44.741Z,100371.03
2023-02-06T03:19:13.376Z,100374.63
2023-02-06T03:21:42.220Z,100375.63
2023-02-06T03:24:13.559Z,100371.28
2023-02-06T03:26:41.902Z,100371.19
2023-02-06T03:29:12.169Z,100374.47
2023-02-06T03:31:45.603Z,100381.59
2023-02-06T03:34:19.895Z,100371.63
2023-02-06T03:36:46.644Z,100385.53
2023-02-06T03:39:13.390Z,100393.91
2023-02-06T03:41:41.569Z,100393.28
2023-02-06T03:44:13.167Z,100396.88
2023-02-06T03:46:43.244Z,100397.25
2023-02-06T03:49:14.071Z,100400.81
2023-02-06T03:51:45.613Z,100400.75
2023-02-06T03:54:16.150Z,100407.59
2023-02-06T03:56:53.744Z,100398.41
2023-02-06T03:59:21.012Z,100401.94
2023-02-06T04:01:51.830Z,100388.63
2023-02-06T04:04:20.351Z,100392.00
2023-02-06T04:06:47.507Z,100405.25
2023-02-06T04:09:13.969Z,100395.66
2023-02-06T04:11:40.424Z,100389.19
2023-02-06T04:14:06.927Z,100392.81
2023-02-06T04:16:33.470Z,100389.97
2023-02-06T04:18:59.988Z,100394.97
2023-02-06T04:21:26.463Z,100400.56
2023-02-06T04:23:52.928Z,100398.44
2023-02-06T04:26:19.364Z,100393.91
2023-02-06T04:28:45.840Z,100388.91
2023-02-06T04:31:12.428Z,100391.63
2023-02-06T04:33:38.968Z,100407.47
2023-02-06T04:36:05.733Z,100390.06
2023-02-06T04:38:32.270Z,100399.31
2023-02-06T04:41:03.619Z,100408.63
2023-02-06T04:43:30.054Z,100397.44
2023-02-06T04:45:56.573Z,100395.28
2023-02-06T04:48:23.237Z,100398.91
2023-02-06T04:50:50.712Z,100403.94
2023-02-06T04:53:17.716Z,100401.38
2023-02-06T04:55:44.281Z,100398.72
2023-02-06T04:58:10.919Z,100391.31
2023-02-06T05:00:38.814Z,100393.53
2023-02-06T05:03:05.409Z,100400.56
2023-02-06T05:05:31.894Z,100386.91
2023-02-06T05:07:58.340Z,100388.25
2023-02-06T05:10:24.801Z,100382.63
2023-02-06T05:12:51.352Z,100378.94
2023-02-06T05:15:18.016Z,100388.19
2023-02-06T05:17:44.655Z,100397.91
2023-02-06T05:20:11.473Z,100406.19
2023-02-06T05:22:38.096Z,100403.84
2023-02-06T05:25:04.741Z,100399.34
2023-02-06T05:27:31.229Z,100400.50
2023-02-06T05:29:57.735Z,100404.88
2023-02-06T05:32:24.224Z,100413.69
2023-02-06T05:34:53.580Z,100413.22
2023-02-06T05:37:20.164Z,100415.16
2023-02-06T05:39:46.627Z,100416.66
2023-02-06T05:42:13.177Z,100406.00
2023-02-06T05:44:39.774Z,100407.47
2023-02-06T05:47:06.240Z,100393.38
2023-02-06T05:49:32.726Z,100409.25
2023-02-06T05:51:59.216Z,100399.59
2023-02-06T05:54:25.734Z,100387.09
2023-02-06T05:56:52.321Z,100389.47
2023-02-06T05:59:18.991Z,100392.28
2023-02-06T06:01:45.470Z,100393.06
2023-02-06T06:04:12.162Z,100386.50
2023-02-06T06:06:38.676Z,100381.72
2023-02-06T06:09:05.257Z,100384.63
2023-02-06T06:11:33.333Z,100391.56
2023-02-06T06:13:59.980Z,100388.22
2023-02-06T06:16:26.567Z,100396.28
2023-02-06T06:18:53.362Z,100387.13
2023-02-06T06:21:19.881Z,100392.41
2023-02-06T06:23:46.416Z,100396.34
2023-02-06T06:26:13.024Z,100394.00
2023-02-06T06:28:39.631Z,100397.53
2023-02-06T06:31:08.885Z,100393.31
2023-02-06T06:33:35.489Z,100396.31
2023-02-06T06:36:02.022Z,100394.25
2023-02-06T06:38:28.528Z,100402.25
2023-02-06T06:40:55.029Z,100398.75
2023-02-06T06:43:21.601Z,100407.88
2023-02-06T06:45:48.124Z,100404.38
2023-02-06T06:48:14.685Z,100406.53
2023-02-06T06:50:41.474Z,100398.56
2023-02-06T06:53:08.041Z,100409.00
2023-02-06T06:55:35.311Z,100403.19
2023-02-06T06:58:02.693Z,100401.53
2023-02-06T07:00:29.248Z,100409.53
2023-02-06T07:02:55.770Z,100413.69
2023-02-06T07:05:22.317Z,100407.31
2023-02-06T07:07:48.836Z,100408.38
2023-02-06T07:10:15.719Z,100408.16
2023-02-06T07:12:42.307Z,100410.81
2023-02-06T07:15:09.256Z,100409.44
2023-02-06T07:17:36.724Z,100406.78
2023-02-06T07:20:03.927Z,100393.66
2023-02-06T07:22:30.453Z,100397.28
2023-02-06T07:24:56.955Z,100402.75
2023-02-06T07:27:23.492Z,100402.75
2023-02-06T07:29:50.006Z,100415.56
2023-02-06T07:32:16.480Z,100419.34
2023-02-06T07:34:42.934Z,100417.19
2023-02-06T07:37:09.507Z,100418.22
2023-02-06T07:39:36.053Z,100426.47
2023-02-06T07:42:02.608Z,100422.94
2023-02-06T07:44:29.054Z,100421.16
2023-02-06T07:46:55.556Z,100415.72
2023-02-06T07:49:22.064Z,100396.63
2023-02-06T07:51:48.797Z,100405.09
2023-02-06T07:54:15.443Z,100405.88
2023-02-06T07:56:42.593Z,100410.72
2023-02-06T07:59:09.482Z,100423.25
2023-02-06T08:01:36.505Z,100407.25
2023-02-06T08:04:03.669Z,100411.91
2023-02-06T08:06:30.185Z,100401.91
2023-02-06T08:08:57.012Z,100407.13
2023-02-06T08:11:30.215Z,100408.16
2023-02-06T08:13:57.736Z,100423.41
2023-02-06T08:16:24.733Z,100413.75
2023-02-06T08:18:52.095Z,100418.22
2023-02-06T08:21:21.665Z,100424.84
2023-02-06T08:23:53.682Z,100432.38
2023-02-06T08:26:21.968Z,100413.16
2023-02-06T08:28:50.019Z,100435.94
2023-02-06T08:31:31.749Z,100431.94
2023-02-06T08:33:58.354Z,100435.59
2023-02-06T08:36:25.721Z,100443.78
2023-02-06T08:38:53.134Z,100446.38
2023-02-06T08:41:24.656Z,100425.69
2023-02-06T08:43:53.898Z,100432.41
2023-02-06T08:46:21.999Z,100444.84
2023-02-06T08:48:48.660Z,100445.53
2023-02-06T08:51:16.373Z,100445.84
2023-02-06T08:53:43.046Z,100442.66
2023-02-06T08:56:12.095Z,100439.59
2023-02-06T08:58:39.196Z,100449.72
2023-02-06T09:01:13.693Z,100442.03
2023-02-06T09:03:41.804Z,100440.75
2023-02-06T09:06:10.294Z,100431.84
2023-02-06T09:08:38.171Z,100432.16
2023-02-06T09:11:15.646Z,100426.31
2023-02-06T09:13:43.809Z,100417.63
2023-02-06T09:16:11.844Z,100415.38
2023-02-06T09:18:38.454Z,100421.72
2023-02-06T09:21:05.432Z,100421.03
2023-02-06T09:23:32.012Z,100419.84
2023-02-06T09:25:58.492Z,100421.25
2023-02-06T09:28:25.060Z,100432.34
2023-02-06T09:30:52.547Z,100418.81
2023-02-06T09:33:19.140Z,100418.84
2023-02-06T09:35:45.598Z,100418.34
2023-02-06T09:38:12.124Z,100423.25
2023-02-06T09:40:38.757Z,100421.28
2023-02-06T09:43:05.695Z,100413.91
2023-02-06T09:45:33.334Z,100416.78
2023-02-06T09:48:14.239Z,100425.34
2023-02-06T09:50:43.520Z,100424.09
2023-02-06T09:54:05.916Z,100408.41
2023-02-06T09:56:41.284Z,100421.97
2023-02-06T09:59:22.850Z,100414.50
2023-02-06T10:02:26.669Z,100421.06
2023-02-06T10:05:03.303Z,100419.50
2023-02-06T10:07:53.321Z,100429.94
2023-02-06T10:10:45.383Z,100430.03
2023-02-06T10:13:36.814Z,100438.59
2023-02-06T10:16:29.249Z,100425.09
2023-02-06T10:19:01.085Z,100414.22
2023-02-06T10:21:38.931Z,100421.25
2023-02-06T10:24:28.355Z,100412.66
2023-02-06T10:26:55.821Z,100415.38
2023-02-06T10:29:28.742Z,100423.56
2023-02-06T10:32:08.536Z,100415.28
2023-02-06T10:34:51.778Z,100407.53
2023-02-06T10:37:51.191Z,100408.06
2023-02-06T10:40:35.383Z,100406.00
2023-02-06T10:43:13.944Z,100396.03
2023-02-06T10:45:52.459Z,100389.75
2023-02-06T10:48:40.341Z,100381.94
2023-02-06T10:51:24.849Z,100375.44
2023-02-06T10:53:54.393Z,100368.81
2023-02-06T10:56:26.537Z,100368.97
2023-02-06T10:59:01.103Z,100368.81
2023-02-06T11:01:34.499Z,100357.47
2023-02-06T11:04:05.926Z,100351.19
2023-02-06T11:06:32.661Z,100353.50
2023-02-06T11:08:59.255Z,100354.06
2023-02-06T11:11:31.618Z,100347.56
2023-02-06T11:14:18.593Z,100332.91
2023-02-06T11:16:46.752Z,100334.06
2023-02-06T11:19:38.753Z,100334.56
2023-02-06T11:22:05.767Z,100332.03
2023-02-06T11:24:32.327Z,100327.22
2023-02-06T11:27:16.019Z,100324.22
2023-02-06T11:29:50.954Z,100317.72
2023-02-06T11:32:43.913Z,100319.41
2023-02-06T11:35:29.989Z,100318.94
2023-02-06T11:38:15.703Z,100313.56
2023-02-06T11:40:42.864Z,100309.25
2023-02-06T11:43:22.080Z,100315.59
2023-02-06T11:45:52.723Z,100314.91
2023-02-06T11:48:48.817Z,100305.41
2023-02-06T11:51:16.866Z,100310.41
2023-02-06T11:54:01.047Z,100299.72
2023-02-06T11:56:29.977Z,100311.41
2023-02-06T11:59:15.552Z,100299.03
2023-02-06T12:01:44.817Z,100290.88
2023-02-06T12:04:31.246Z,100288.34
2023-02-06T12:07:31.328Z,100286.84
2023-02-06T12:09:57.936Z,100287.38
2023-02-06T12:12:33.146Z,100294.00
2023-02-06T12:15:46.399Z,100278.88
2023-02-06T12:18:22.382Z,100282.19
2023-02-06T12:21:15.156Z,100287.53
2023-02-06T12:23:47.549Z,100282.22
2023-02-06T12:26:20.543Z,100278.69
2023-02-06T12:29:09.683Z,100275.84
2023-02-06T12:32:04.651Z,100267.84
2023-02-06T12:34:48.360Z,100257.66
2023-02-06T12:37:21.256Z,100246.63
2023-02-06T12:39:49.025Z,100253.19
2023-02-06T12:42:24.831Z,100241.69
2023-02-06T12:45:02.071Z,100247.38
2023-02-06T12:47:45.033Z,100242.72
2023-02-06T12:50:27.179Z,100240.47
2023-02-06T12:53:06.499Z,100247.16
2023-02-06T12:55:42.241Z,100236.44
2023-02-06T12:58:25.640Z,100244.78
2023-02-06T13:01:12.055Z,100227.38
2023-02-06T13:03:57.172Z,100220.03
2023-02-06T13:06:30.665Z,100219.31
2023-02-06T13:08:59.689Z,100222.25
2023-02-06T13:11:35.633Z,100216.84
2023-02-06T13:14:06.927Z,100215.81
2023-02-06T13:16:45.717Z,100213.84
2023-02-06T13:19:25.257Z,100211.50
2023-02-06T13:22:22.910Z,100212.56
2023-02-06T13:24:51.388Z,100223.31
2023-02-06T13:27:36.726Z,100218.59
2023-02-06T13:30:31.337Z,100220.03
2023-02-06T13:33:22.633Z,100216.31
2023-02-06T13:35:56.604Z,100222.53
2023-02-06T13:38:23.032Z,100223.09
2023-02-06T13:41:29.259Z,100218.16
2023-02-06T13:44:01.305Z,100216.31
2023-02-06T13:46:47.934Z,100213.78
2023-02-06T13:49:35.327Z,100210.91
2023-02-06T13:52:18.625Z,100208.41
2023-02-06T13:55:02.045Z,100203.06
2023-02-06T13:57:44.343Z,100189.50
2023-02-06T14:00:31.802Z,100181.03
2023-02-06T14:03:18.234Z,100185.44
2023-02-06T14:05:54.120Z,100189.00
2023-02-06T14:08:59.411Z,100176.75
2023-02-06T14:12:20.680Z,100185.69
2023-02-06T14:15:16.593Z,100187.53
2023-02-06T14:17:58.531Z,100197.94
2023-02-06T14:21:00.192Z,100187.72
2023-02-06T14:23:54.764Z,100188.16
2023-02-06T14:26:40.180Z,100199.50
2023-02-06T14:29:39.654Z,100210.75
2023-02-06T14:32:24.126Z,100195.97
2023-02-06T14:35:25.616Z,100194.47
2023-02-06T14:38:13.565Z,100198.44
2023-02-06T14:40:42.717Z,100200.50
2023-02-06T14:43:17.545Z,100200.81
2023-02-06T14:46:05.516Z,100198.66
2023-02-06T14:48:44.173Z,100187.16
2023-02-06T14:51:41.421Z,100194.88
2023-02-06T14:54:29.543Z,100173.81
2023-02-06T14:57:02.269Z,100182.22
2023-02-06T14:59:30.202Z,100195.22
2023-02-06T15:01:58.334Z,100199.84
2023-02-06T15:04:28.353Z,100191.84
2023-02-06T15:06:59.678Z,100196.69
2023-02-06T15:09:40.441Z,100197.19
2023-02-06T15:12:24.883Z,100208.19
2023-02-06T15:15:00.792Z,100199.88
2023-02-06T15:17:27.294Z,100200.22
2023-02-06T15:19:53.828Z,100212.72
2023-02-06T15:22:27.589Z,100202.38
2023-02-06T15:24:59.977Z,100195.22
2023-02-06T15:27:32.094Z,100191.88
2023-02-06T15:30:00.524Z,100196.88
2023-02-06T15:32:34.209Z,100198.72
2023-02-06T15:35:02.509Z,100195.19
2023-02-06T15:37:32.329Z,100189.56
2023-02-06T15:40:27.987Z,100185.72
2023-02-06T15:42:54.702Z,100194.53
2023-02-06T15:45:24.587Z,100188.53
2023-02-06T15:47:53.295Z,100199.06
2023-02-06T15:50:24.413Z,100193.19
2023-02-06T15:52:51.443Z,100186.88
2023-02-06T15:55:33.376Z,100186.19
2023-02-06T15:58:06.264Z,100191.66
2023-02-06T16:00:36.879Z,100188.34
2023-02-06T16:03:06.975Z,100186.88
2023-02-06T16:05:36.156Z,100180.56
2023-02-06T16:08:05.276Z,100180.03
2023-02-06T16:10:37.564Z,100176.75
2023-02-06T16:13:11.035Z,100178.56
2023-02-06T16:15:40.326Z,100183.22
2023-02-06T16:18:24.909Z,100187.16
2023-02-06T16:20:51.608Z,100182.88
2023-02-06T16:23:18.067Z,100176.81
2023-02-06T16:25:46.883Z,100176.16
2023-02-06T16:28:24.770Z,100181.16
2023-02-06T16:30:57.889Z,100177.16
2023-02-06T16:33:51.570Z,100177.16
2023-02-06T16:36:20.188Z,100188.31
2023-02-06T16:38:57.683Z,100192.16
2023-02-06T16:41:35.535Z,100202.13
2023-02-06T16:44:04.834Z,100210.25
2023-02-06T16:46:31.500Z,100214.66
2023-02-06T16:48:59.529Z,100219.06
2023-02-06T16:51:28.345Z,100209.41
2023-02-06T16:53:54.986Z,100222.22
2023-02-06T16:56:22.000Z,100222.44
2023-02-06T16:58:48.725Z,100233.94
2023-02-06T17:01:25.183Z,100230.06
2023-02-06T17:03:52.864Z,100237.06
2023-02-06T17:06:25.110Z,100231.75
2023-02-06T17:08:54.423Z,100240.06
2023-02-06T17:11:21.127Z,100242.09
2023-02-06T17:13:47.673Z,100246.09
2023-02-06T17:16:22.565Z,100240.06
2023-02-06T17:18:50.223Z,100242.72
2023-02-06T17:21:19.084Z,100249.00
2023-02-06T17:23:46.436Z,100261.84
2023-02-06T17:26:15.387Z,100256.69
2023-02-06T17:28:42.120Z,100243.91
2023-02-06T17:31:09.143Z,100253.09
2023-02-06T17:33:36.566Z,100243.00
2023-02-06T17:36:06.999Z,100249.50
2023-02-06T17:38:34.283Z,100251.13
2023-02-06T17:41:00.835Z,100241.25
2023-02-06T17:43:28.099Z,100245.44
2023-02-06T17:45:54.591Z,100242.78
2023-02-06T17:48:21.119Z,100241.94
2023-02-06T17:50:47.634Z,100245.75
2023-02-06T17:53:14.752Z,100238.06
2023-02-06T17:55:41.649Z,100235.91
2023-02-06T17:58:08.771Z,100236.09
2023-02-06T18:00:35.644Z,100241.88
2023-02-06T18:03:02.505Z,100234.25
2023-02-06T18:05:29.081Z,100240.91
2023-02-06T18:07:55.585Z,100241.22
2023-02-06T18:10:24.674Z,100250.59
2023-02-06T18:12:51.289Z,100257.03
2023-02-06T18:15:17.820Z,100246.00
2023-02-06T18:17:44.451Z,100243.53
2023-02-06T18:20:12.132Z,100235.00
2023-02-06T18:22:41.494Z,100238.66
2023-02-06T18:25:13.850Z,100242.94
2023-02-06T18:27:41.976Z,100234.16
2023-02-06T18:30:09.851Z,100232.44
2023-02-06T18:32:38.105Z,100221.72
2023-02-06T18:35:06.379Z,100211.69
2023-02-06T18:37:33.132Z,100217.66
2023-02-06T18:39:59.584Z,100212.97
2023-02-06T18:42:46.121Z,100209.13
2023-02-06T18:45:12.970Z,100198.47
2023-02-06T18:47:42.424Z,100196.69
2023-02-06T18:50:11.406Z,100187.00
2023-02-06T18:52:39.358Z,100190.44
2023-02-06T18:55:08.396Z,100180.84
2023-02-06T18:57:36.420Z,100192.66
2023-02-06T19:00:09.121Z,100186.34
2023-02-06T19:02:35.826Z,100200.44
2023-02-06T19:05:02.491Z,100191.25
2023-02-06T19:07:29.156Z,100196.13
2023-02-06T19:10:00.385Z,100196.41
2023-02-06T19:12:28.670Z,100187.78
2023-02-06T19:14:59.165Z,100190.56
2023-02-06T19:17:27.614Z,100192.03
2023-02-06T19:19:54.774Z,100194.09
2023-02-06T19:22:21.535Z,100182.41
2023-02-06T19:24:48.065Z,100191.78
2023-02-06T19:27:14.604Z,100183.53
2023-02-06T19:29:41.123Z,100184.06
2023-02-06T19:32:09.324Z,100176.84
2023-02-06T19:34:39.931Z,100167.50
2023-02-06T19:37:08.774Z,100167.06
2023-02-06T19:39:37.064Z,100160.16
2023-02-06T19:42:06.676Z,100155.84
2023-02-06T19:44:33.495Z,100166.59
2023-02-06T19:47:00.140Z,100159.28
2023-02-06T19:49:27.143Z,100159.66
2023-02-06T19:51:53.714Z,100147.38
2023-02-06T19:54:20.233Z,100145.66
2023-02-06T19:56:47.625Z,100151.56
2023-02-06T19:59:20.040Z,100144.59
2023-02-06T20:01:48.943Z,100148.28
2023-02-06T20:04:16.423Z,100144.78
2023-02-06T20:06:44.193Z,100146.44
2023-02-06T20:09:13.389Z,100145.59
2023-02-06T20:11:41.211Z,100136.75
2023-02-06T20:14:08.869Z,100137.03
2023-02-06T20:16:38.596Z,100132.56
2023-02-06T20:19:18.499Z,100132.03
2023-02-06T20:21:49.182Z,100133.03
2023-02-06T20:24:20.989Z,100134.16
2023-02-06T20:26:50.818Z,100132.72
2023-02-06T20:29:38.074Z,100135.50
2023-02-06T20:32:06.540Z,100145.50
2023-02-06T20:34:33.689Z,100154.19
2023-02-06T20:37:00.438Z,100155.84
2023-02-06T20:39:27.557Z,100156.53
2023-02-06T20:41:55.006Z,100161.84
2023-02-06T20:44:21.856Z,100146.66
2023-02-06T20:46:48.611Z,100147.78
2023-02-06T20:49:18.112Z,100131.84
2023-02-06T20:51:45.118Z,100131.84
2023-02-06T20:54:12.066Z,100133.09
2023-02-06T20:56:39.969Z,100133.84
2023-02-06T20:59:06.955Z,100131.72
2023-02-06T21:01:34.272Z,100136.34
2023-02-06T21:04:07.162Z,100130.22
2023-02-06T21:06:35.709Z,100128.56
2023-02-06T21:09:03.153Z,100120.22
2023-02-06T21:11:32.244Z,100127.13
2023-02-06T21:14:01.444Z,100126.97
2023-02-06T21:16:29.622Z,100127.03
2023-02-06T21:18:57.720Z,100118.84
2023-02-06T21:21:27.753Z,100120.28
2023-02-06T21:23:57.666Z,100122.13
2023-02-06T21:26:25.802Z,100125.91
2023-02-06T21:28:52.789Z,100118.56
2023-02-06T21:31:23.830Z,100119.38
2023-02-06T21:33:51.877Z,100118.38
2023-02-06T21:36:21.094Z,100120.38
2023-02-06T21:38:47.794Z,100108.25
2023-02-06T21:41:17.981Z,100095.03
2023-02-06T21:43:45.461Z,100092.44
2023-02-06T21:46:13.018Z,100090.78
2023-02-06T21:48:40.272Z,100072.22
2023-02-06T21:51:11.568Z,100060.59
2023-02-06T21:53:39.036Z,100059.38
2023-02-06T21:56:07.662Z,100071.38
2023-02-06T21:58:35.556Z,100077.44
2023-02-06T22:01:02.480Z,100078.16
2023-02-06T22:03:29.252Z,100063.94
2023-02-06T22:05:55.739Z,100055.47
2023-02-06T22:08:22.256Z,100055.34
2023-02-06T22:10:48.722Z,100053.38
2023-02-06T22:13:15.225Z,100052.06
2023-02-06T22:15:48.490Z,100047.75
2023-02-06T22:18:14.991Z,100061.84
2023-02-06T22:20:41.459Z,100048.31
2023-02-06T22:23:07.947Z,100050.81
2023-02-06T22:25:34.432Z,100040.75
2023-02-06T22:28:00.935Z,100031.06
2023-02-06T22:30:27.551Z,100038.13
2023-02-06T22:32:54.083Z,100030.34
2023-02-06T22:35:20.591Z,100021.38
2023-02-06T22:37:47.422Z,100017.63
2023-02-06T22:40:13.942Z,100028.03
2023-02-06T22:42:40.392Z,100018.53
2023-02-06T22:45:07.210Z,100018.69
2023-02-06T22:47:33.682Z,100030.72
2023-02-06T22:50:00.170Z,100020.72
2023-02-06T22:52:46.017Z,100024.16
2023-02-06T22:55:12.627Z,100026.50
2023-02-06T22:57:39.090Z,100006.09
2023-02-06T23:00:09.398Z,100006.13
2023-02-06T23:02:38.419Z,100005.50
2023-02-06T23:05:05.131Z,100012.25
2023-02-06T23:07:31.577Z,100003.06
2023-02-06T23:09:58.035Z,100008.22
2023-02-06T23:12:24.532Z,100000.59
2023-02-06T23:14:51.014Z,100000.16
2023-02-06T23:17:17.535Z,99997.19
2023-02-06T23:19:44.149Z,99985.03
2023-02-06T23:22:10.814Z,99991.41
2023-02-06T23:24:37.356Z,99991.09
2023-02-06T23:27:03.890Z,99982.59
2023-02-06T23:29:30.426Z,99971.19
2023-02-06T23:31:56.896Z,99968.34
2023-02-06T23:34:24.423Z,99971.09
2023-02-06T23:36:52.032Z,99970.22
2023-02-06T23:39:18.747Z,99975.72
2023-02-06T23:41:45.230Z,99976.78
2023-02-06T23:44:11.921Z,99987.75
2023-02-06T23:46:40.218Z,99981.69
2023-02-06T23:49:07.251Z,99976.84
2023-02-06T23:51:35.051Z,99982.44
2023-02-06T23:54:01.987Z,99987.53
2023-02-06T23:56:30.178Z,99978.28
2023-02-06T23:58:58.623Z,99980.34
